Aplicació Alertes

Dades de l'estació automàtica Aldover

?
?
Resum diari 22:30 TU
Dades diàries de l'estació meteorològica
Temperatura mitjana 9.7 °C
Temperatura màxima 14.3 °C 13:45 TU
Temperatura mínima 5.2 °C 7:41 TU
Humitat relativa mitjana 45%
Precipitació acumulada 0.0 mm
Ratxa màxima del vent (2 m) 36.4 km/h - 291º 0:10 TU
Irradiació solar global 8.7 MJ/m2

El tram horari està expressat en Temps Universal (TU). Cal sumar una hora en horari d'hivern i dues en horari d'estiu per passar a l'hora oficial.

Aldover

Metadades estació meteorol´gica
Municipi Aldover
Comarca Baix Ebre
Altitud 52 m
Data alta 31.12.1994
Estat actual Operativa
Dades de període
Període
TU
TM
°C
TX
°C
TN
°C
HRM
%
PPT
mm
VVM (2 m)
km/h
DVM (2 m)
graus
VVX (2 m)
km/h
RS
W/m2
00:00 - 00:30 8.2 8.3 8.1 48 0.0 10.8 324 36.4 0
00:30 - 01:00 8.2 8.2 8.0 46 0.0 7.2 334 17.6 0
01:00 - 01:30 8.0 8.1 7.9 49 0.0 7.9 347 23.4 0
01:30 - 02:00 7.8 8.0 7.6 52 0.0 9.0 335 23.8 0
02:00 - 02:30 7.5 7.5 7.4 52 0.0 7.2 335 22.7 0
02:30 - 03:00 7.7 7.7 7.5 50 0.0 8.6 335 23.8 0
03:00 - 03:30 7.7 7.8 7.7 48 0.0 9.7 349 29.9 0
03:30 - 04:00 7.6 7.7 7.5 47 0.0 7.2 335 20.5 0
04:00 - 04:30 7.4 7.5 7.3 48 0.0 11.5 350 29.5 0
04:30 - 05:00 7.4 7.5 7.3 50 0.0 11.2 348 29.9 0
05:00 - 05:30 7.4 7.5 7.3 52 0.0 9.4 348 24.1 0
05:30 - 06:00 7.6 7.7 7.4 53 0.0 9.0 341 20.2 0
06:00 - 06:30 7.4 7.7 7.2 54 0.0 8.6 353 20.9 0
06:30 - 07:00 6.9 7.2 6.6 55 0.0 3.6 346 13.7 0
07:00 - 07:30 6.1 6.7 5.7 58 0.0 1.8 53 9.0 5
07:30 - 08:00 5.7 6.5 5.2 59 0.0 1.8 1 6.1 42
08:00 - 08:30 7.7 8.2 6.7 53 0.0 2.5 4 9.7 116
08:30 - 09:00 8.7 9.4 8.2 50 0.0 5.0 16 11.5 186
09:00 - 09:30 10.0 10.4 9.5 45 0.0 2.5 18 10.4 276
09:30 - 10:00 10.5 11.2 10.1 41 0.0 2.2 13 9.0 339
10:00 - 10:30 10.9 11.1 10.7 39 0.0 5.0 294 18.0 393
10:30 - 11:00 11.2 11.6 10.8 38 0.0 5.8 298 18.7 431
11:00 - 11:30 12.1 12.6 11.5 34 0.0 4.0 292 17.6 458
11:30 - 12:00 12.3 12.6 12.0 33 0.0 4.0 341 16.6 470
12:00 - 12:30 12.9 13.4 12.6 31 0.0 6.1 280 19.1 467
12:30 - 13:00 13.2 13.5 13.1 31 0.0 6.8 275 19.4 450
13:00 - 13:30 13.7 14.0 13.4 29 0.0 6.1 273 16.2 420
13:30 - 14:00 14.0 14.3 13.6 27 0.0 5.4 291 15.1 376
14:00 - 14:30 13.9 14.3 13.7 29 0.0 6.1 268 15.5 227
14:30 - 15:00 13.6 13.8 13.5 30 0.0 5.4 297 16.2 113
15:00 - 15:30 13.1 13.6 12.6 30 0.0 5.0 310 18.4 33
15:30 - 16:00 12.2 12.6 11.7 33 0.0 2.9 351 8.3 28
16:00 - 16:30 11.3 11.7 11.0 35 0.0 4.0 337 13.3 11
16:30 - 17:00 11.0 11.2 10.5 39 0.0 3.2 333 14.0 2
17:00 - 17:30 10.4 10.7 10.1 43 0.0 3.2 21 11.5 0
17:30 - 18:00 10.6 10.8 10.4 46 0.0 4.7 17 14.0 0
18:00 - 18:30 10.3 10.6 10.2 48 0.0 5.0 19 15.1 0
18:30 - 19:00 10.3 10.5 10.1 49 0.0 6.5 7 14.8 0
19:00 - 19:30 10.2 10.4 9.8 48 0.0 4.7 33 20.9 0
19:30 - 20:00 9.5 9.9 9.1 49 0.0 2.2 118 9.7 0
20:00 - 20:30 10.1 10.5 9.3 46 0.0 5.4 289 15.1 0
20:30 - 21:00 9.6 10.3 8.9 51 0.0 2.2 26 7.9 0
21:00 - 21:30 9.4 9.8 9.0 54 0.0 5.8 17 19.1 0
21:30 - 22:00 8.7 9.1 8.0 57 0.0 1.1 332 7.2 0
22:00 - 22:30 7.5 7.9 7.1 61 0.0 0.7 67 8.3 0
22:30 - 23:00 7.5 8.2 6.5 60 0.0 1.4 335 4.7 0

Les dades en taronja només han passat un control de qualitat automàtic. Resta pendent la seva validació definitiva.